sensor_id;sensor_type;location;lat;lon;timestamp;P1;durP1;ratioP1;P2;durP2;ratioP2
37847;SDS011;23688;33.130;-117.188;2024-03-29T00:01:28;8.35;;;2.28;;
37847;SDS011;23688;33.130;-117.188;2024-03-29T00:03:54;8.48;;;2.20;;
37847;SDS011;23688;33.130;-117.188;2024-03-29T00:06:20;4.28;;;1.58;;
37847;SDS011;23688;33.130;-117.188;2024-03-29T00:08:47;3.95;;;1.60;;
37847;SDS011;23688;33.130;-117.188;2024-03-29T00:11:13;8.85;;;2.50;;
37847;SDS011;23688;33.130;-117.188;2024-03-29T00:13:39;7.70;;;2.00;;
37847;SDS011;23688;33.130;-117.188;2024-03-29T00:16:06;12.52;;;2.13;;
37847;SDS011;23688;33.130;-117.188;2024-03-29T00:18:32;5.00;;;2.28;;
37847;SDS011;23688;33.130;-117.188;2024-03-29T00:20:59;10.55;;;2.08;;
37847;SDS011;23688;33.130;-117.188;2024-03-29T00:23:25;12.27;;;3.05;;
37847;SDS011;23688;33.130;-117.188;2024-03-29T00:25:53;7.25;;;1.63;;
37847;SDS011;23688;33.130;-117.188;2024-03-29T00:28:23;8.65;;;2.10;;
37847;SDS011;23688;33.130;-117.188;2024-03-29T00:30:49;11.30;;;2.72;;
37847;SDS011;23688;33.130;-117.188;2024-03-29T00:33:16;8.63;;;2.17;;
37847;SDS011;23688;33.130;-117.188;2024-03-29T00:35:42;4.75;;;2.05;;
37847;SDS011;23688;33.130;-117.188;2024-03-29T00:38:08;4.40;;;1.77;;
37847;SDS011;23688;33.130;-117.188;2024-03-29T00:40:38;11.57;;;2.30;;
37847;SDS011;23688;33.130;-117.188;2024-03-29T00:43:04;9.50;;;1.95;;
37847;SDS011;23688;33.130;-117.188;2024-03-29T00:45:30;6.85;;;1.77;;
37847;SDS011;23688;33.130;-117.188;2024-03-29T00:47:57;5.32;;;2.28;;
37847;SDS011;23688;33.130;-117.188;2024-03-29T00:50:23;8.93;;;2.28;;
37847;SDS011;23688;33.130;-117.188;2024-03-29T00:52:49;9.25;;;1.67;;
37847;SDS011;23688;33.130;-117.188;2024-03-29T00:55:16;6.25;;;1.75;;
37847;SDS011;23688;33.130;-117.188;2024-03-29T00:57:43;10.40;;;3.08;;
37847;SDS011;23688;33.130;-117.188;2024-03-29T01:00:09;7.70;;;2.13;;
37847;SDS011;23688;33.130;-117.188;2024-03-29T01:02:36;4.95;;;2.03;;
37847;SDS011;23688;33.130;-117.188;2024-03-29T01:05:03;7.82;;;2.47;;
37847;SDS011;23688;33.130;-117.188;2024-03-29T01:07:29;8.18;;;2.97;;
37847;SDS011;23688;33.130;-117.188;2024-03-29T01:09:56;9.45;;;2.85;;
37847;SDS011;23688;33.130;-117.188;2024-03-29T01:12:22;11.48;;;2.80;;
37847;SDS011;23688;33.130;-117.188;2024-03-29T01:14:48;5.47;;;2.63;;
37847;SDS011;23688;33.130;-117.188;2024-03-29T01:17:15;5.05;;;1.88;;
37847;SDS011;23688;33.130;-117.188;2024-03-29T01:19:41;5.90;;;2.33;;
37847;SDS011;23688;33.130;-117.188;2024-03-29T01:22:07;6.93;;;2.15;;
37847;SDS011;23688;33.130;-117.188;2024-03-29T01:24:34;9.80;;;2.47;;
37847;SDS011;23688;33.130;-117.188;2024-03-29T01:27:00;6.07;;;2.30;;
37847;SDS011;23688;33.130;-117.188;2024-03-29T01:29:27;7.75;;;2.05;;
37847;SDS011;23688;33.130;-117.188;2024-03-29T01:31:53;3.97;;;2.00;;
37847;SDS011;23688;33.130;-117.188;2024-03-29T01:34:19;5.13;;;2.15;;
37847;SDS011;23688;33.130;-117.188;2024-03-29T01:36:46;4.10;;;1.73;;
37847;SDS011;23688;33.130;-117.188;2024-03-29T01:39:12;4.28;;;2.13;;
37847;SDS011;23688;33.130;-117.188;2024-03-29T01:41:40;5.95;;;1.65;;
37847;SDS011;23688;33.130;-117.188;2024-03-29T01:44:07;5.53;;;1.73;;
37847;SDS011;23688;33.130;-117.188;2024-03-29T01:46:36;7.13;;;1.70;;
37847;SDS011;23688;33.130;-117.188;2024-03-29T01:49:04;3.83;;;1.70;;
37847;SDS011;23688;33.130;-117.188;2024-03-29T01:51:31;7.93;;;2.25;;
37847;SDS011;23688;33.130;-117.188;2024-03-29T01:54:02;7.35;;;2.25;;
37847;SDS011;23688;33.130;-117.188;2024-03-29T01:56:30;4.05;;;1.63;;
37847;SDS011;23688;33.130;-117.188;2024-03-29T01:58:57;4.05;;;1.60;;
37847;SDS011;23688;33.130;-117.188;2024-03-29T02:01:25;3.87;;;1.53;;
37847;SDS011;23688;33.130;-117.188;2024-03-29T02:03:53;4.85;;;1.70;;
37847;SDS011;23688;33.130;-117.188;2024-03-29T02:06:21;6.25;;;2.10;;
37847;SDS011;23688;33.130;-117.188;2024-03-29T02:08:54;10.10;;;2.40;;
37847;SDS011;23688;33.130;-117.188;2024-03-29T02:11:20;8.98;;;2.13;;
37847;SDS011;23688;33.130;-117.188;2024-03-29T02:13:47;6.57;;;2.00;;
37847;SDS011;23688;33.130;-117.188;2024-03-29T02:16:17;4.25;;;1.83;;
37847;SDS011;23688;33.130;-117.188;2024-03-29T02:18:44;6.55;;;1.88;;
37847;SDS011;23688;33.130;-117.188;2024-03-29T02:21:10;7.53;;;1.83;;
37847;SDS011;23688;33.130;-117.188;2024-03-29T02:23:37;10.30;;;2.33;;
37847;SDS011;23688;33.130;-117.188;2024-03-29T02:26:08;14.30;;;4.55;;
37847;SDS011;23688;33.130;-117.188;2024-03-29T02:28:35;6.00;;;2.75;;
37847;SDS011;23688;33.130;-117.188;2024-03-29T02:31:02;5.47;;;1.92;;
37847;SDS011;23688;33.130;-117.188;2024-03-29T02:33:28;8.45;;;2.55;;
37847;SDS011;23688;33.130;-117.188;2024-03-29T02:35:55;7.72;;;2.42;;
37847;SDS011;23688;33.130;-117.188;2024-03-29T02:38:21;7.32;;;2.67;;
37847;SDS011;23688;33.130;-117.188;2024-03-29T02:40:47;9.63;;;2.80;;
37847;SDS011;23688;33.130;-117.188;2024-03-29T02:43:13;3.40;;;1.60;;
37847;SDS011;23688;33.130;-117.188;2024-03-29T02:45:40;8.27;;;3.47;;
37847;SDS011;23688;33.130;-117.188;2024-03-29T02:48:06;5.82;;;2.83;;
37847;SDS011;23688;33.130;-117.188;2024-03-29T02:50:33;6.28;;;2.58;;
37847;SDS011;23688;33.130;-117.188;2024-03-29T02:52:59;8.00;;;1.98;;
37847;SDS011;23688;33.130;-117.188;2024-03-29T02:55:25;9.82;;;2.40;;
37847;SDS011;23688;33.130;-117.188;2024-03-29T02:57:52;5.80;;;1.83;;
37847;SDS011;23688;33.130;-117.188;2024-03-29T03:00:18;5.47;;;1.80;;
37847;SDS011;23688;33.130;-117.188;2024-03-29T03:02:44;5.10;;;1.77;;
37847;SDS011;23688;33.130;-117.188;2024-03-29T03:05:10;4.72;;;1.85;;
37847;SDS011;23688;33.130;-117.188;2024-03-29T03:07:37;6.35;;;1.90;;
37847;SDS011;23688;33.130;-117.188;2024-03-29T03:10:22;8.32;;;2.08;;
37847;SDS011;23688;33.130;-117.188;2024-03-29T03:13:06;6.68;;;3.00;;
37847;SDS011;23688;33.130;-117.188;2024-03-29T03:15:32;3.92;;;1.88;;
37847;SDS011;23688;33.130;-117.188;2024-03-29T03:17:58;7.47;;;2.50;;
37847;SDS011;23688;33.130;-117.188;2024-03-29T03:20:25;7.05;;;2.00;;
37847;SDS011;23688;33.130;-117.188;2024-03-29T03:22:57;4.75;;;2.58;;
37847;SDS011;23688;33.130;-117.188;2024-03-29T03:25:24;10.75;;;2.40;;
37847;SDS011;23688;33.130;-117.188;2024-03-29T03:27:52;9.65;;;2.30;;
37847;SDS011;23688;33.130;-117.188;2024-03-29T03:30:18;9.80;;;2.20;;
37847;SDS011;23688;33.130;-117.188;2024-03-29T03:32:45;6.60;;;2.25;;
37847;SDS011;23688;33.130;-117.188;2024-03-29T03:35:11;6.05;;;2.25;;
37847;SDS011;23688;33.130;-117.188;2024-03-29T03:37:37;6.82;;;2.35;;
37847;SDS011;23688;33.130;-117.188;2024-03-29T03:40:04;4.05;;;2.30;;
37847;SDS011;23688;33.130;-117.188;2024-03-29T03:42:34;9.35;;;2.42;;
37847;SDS011;23688;33.130;-117.188;2024-03-29T03:45:00;6.88;;;2.20;;
37847;SDS011;23688;33.130;-117.188;2024-03-29T03:47:26;7.65;;;1.80;;
37847;SDS011;23688;33.130;-117.188;2024-03-29T03:49:53;8.05;;;2.38;;
37847;SDS011;23688;33.130;-117.188;2024-03-29T03:52:19;6.03;;;2.03;;
37847;SDS011;23688;33.130;-117.188;2024-03-29T03:54:45;4.50;;;1.90;;
37847;SDS011;23688;33.130;-117.188;2024-03-29T03:57:12;12.73;;;3.15;;
37847;SDS011;23688;33.130;-117.188;2024-03-29T03:59:38;6.93;;;1.88;;
37847;SDS011;23688;33.130;-117.188;2024-03-29T04:02:04;4.43;;;2.00;;
37847;SDS011;23688;33.130;-117.188;2024-03-29T04:04:31;13.52;;;2.63;;
37847;SDS011;23688;33.130;-117.188;2024-03-29T04:06:57;4.13;;;2.10;;
37847;SDS011;23688;33.130;-117.188;2024-03-29T04:09:23;3.85;;;2.00;;
37847;SDS011;23688;33.130;-117.188;2024-03-29T04:11:50;6.00;;;2.08;;
37847;SDS011;23688;33.130;-117.188;2024-03-29T04:14:16;5.43;;;1.90;;
37847;SDS011;23688;33.130;-117.188;2024-03-29T04:16:46;5.25;;;2.28;;
37847;SDS011;23688;33.130;-117.188;2024-03-29T04:19:12;6.15;;;2.03;;
37847;SDS011;23688;33.130;-117.188;2024-03-29T04:21:38;7.80;;;2.40;;
37847;SDS011;23688;33.130;-117.188;2024-03-29T04:24:05;7.00;;;2.38;;
37847;SDS011;23688;33.130;-117.188;2024-03-29T04:26:35;11.95;;;2.65;;
37847;SDS011;23688;33.130;-117.188;2024-03-29T04:29:02;7.53;;;2.53;;
37847;SDS011;23688;33.130;-117.188;2024-03-29T04:31:29;8.70;;;2.78;;
37847;SDS011;23688;33.130;-117.188;2024-03-29T04:33:55;8.68;;;2.25;;
37847;SDS011;23688;33.130;-117.188;2024-03-29T04:36:21;12.88;;;2.95;;
37847;SDS011;23688;33.130;-117.188;2024-03-29T04:38:48;9.27;;;2.60;;
37847;SDS011;23688;33.130;-117.188;2024-03-29T04:41:14;6.60;;;1.98;;
37847;SDS011;23688;33.130;-117.188;2024-03-29T04:43:41;10.55;;;2.42;;
37847;SDS011;23688;33.130;-117.188;2024-03-29T04:46:10;6.23;;;2.13;;
37847;SDS011;23688;33.130;-117.188;2024-03-29T04:48:37;9.43;;;2.08;;
37847;SDS011;23688;33.130;-117.188;2024-03-29T04:51:06;9.68;;;2.38;;
37847;SDS011;23688;33.130;-117.188;2024-03-29T04:53:32;11.02;;;2.72;;
37847;SDS011;23688;33.130;-117.188;2024-03-29T04:56:00;8.98;;;2.40;;
37847;SDS011;23688;33.130;-117.188;2024-03-29T04:58:27;9.43;;;2.50;;
37847;SDS011;23688;33.130;-117.188;2024-03-29T05:00:54;7.30;;;1.80;;
37847;SDS011;23688;33.130;-117.188;2024-03-29T05:03:21;8.93;;;2.42;;
37847;SDS011;23688;33.130;-117.188;2024-03-29T05:05:49;8.63;;;2.17;;
37847;SDS011;23688;33.130;-117.188;2024-03-29T05:08:16;10.70;;;2.78;;
37847;SDS011;23688;33.130;-117.188;2024-03-29T05:10:48;6.38;;;2.78;;
37847;SDS011;23688;33.130;-117.188;2024-03-29T05:13:17;7.35;;;2.50;;
37847;SDS011;23688;33.130;-117.188;2024-03-29T05:15:47;7.57;;;3.47;;
37847;SDS011;23688;33.130;-117.188;2024-03-29T05:18:13;11.35;;;2.72;;
37847;SDS011;23688;33.130;-117.188;2024-03-29T05:20:40;8.60;;;2.85;;
37847;SDS011;23688;33.130;-117.188;2024-03-29T05:23:13;8.38;;;3.45;;
37847;SDS011;23688;33.130;-117.188;2024-03-29T05:25:47;11.30;;;2.95;;
37847;SDS011;23688;33.130;-117.188;2024-03-29T05:28:14;9.57;;;2.20;;
37847;SDS011;23688;33.130;-117.188;2024-03-29T05:30:41;8.95;;;2.38;;
37847;SDS011;23688;33.130;-117.188;2024-03-29T05:33:09;10.25;;;2.97;;
37847;SDS011;23688;33.130;-117.188;2024-03-29T05:35:37;24.52;;;3.75;;
37847;SDS011;23688;33.130;-117.188;2024-03-29T05:38:03;11.02;;;2.28;;
37847;SDS011;23688;33.130;-117.188;2024-03-29T05:40:30;11.30;;;2.95;;
37847;SDS011;23688;33.130;-117.188;2024-03-29T05:42:56;11.35;;;2.75;;
37847;SDS011;23688;33.130;-117.188;2024-03-29T05:47:54;9.38;;;2.60;;
37847;SDS011;23688;33.130;-117.188;2024-03-29T05:50:21;9.82;;;3.25;;
37847;SDS011;23688;33.130;-117.188;2024-03-29T05:52:48;6.35;;;2.63;;
37847;SDS011;23688;33.130;-117.188;2024-03-29T05:55:15;9.10;;;3.38;;
37847;SDS011;23688;33.130;-117.188;2024-03-29T05:57:41;8.10;;;3.25;;
37847;SDS011;23688;33.130;-117.188;2024-03-29T06:00:11;9.95;;;2.95;;
37847;SDS011;23688;33.130;-117.188;2024-03-29T06:02:42;9.55;;;3.38;;
37847;SDS011;23688;33.130;-117.188;2024-03-29T06:05:13;6.32;;;2.88;;
37847;SDS011;23688;33.130;-117.188;2024-03-29T06:07:39;10.63;;;3.00;;
37847;SDS011;23688;33.130;-117.188;2024-03-29T06:10:06;12.23;;;3.15;;
37847;SDS011;23688;33.130;-117.188;2024-03-29T06:12:34;10.02;;;2.95;;
37847;SDS011;23688;33.130;-117.188;2024-03-29T06:15:04;14.98;;;3.10;;
37847;SDS011;23688;33.130;-117.188;2024-03-29T06:17:49;8.48;;;2.80;;
37847;SDS011;23688;33.130;-117.188;2024-03-29T06:20:16;6.82;;;2.35;;
37847;SDS011;23688;33.130;-117.188;2024-03-29T06:22:42;11.27;;;2.50;;
37847;SDS011;23688;33.130;-117.188;2024-03-29T06:25:09;8.65;;;2.72;;
37847;SDS011;23688;33.130;-117.188;2024-03-29T06:27:36;7.20;;;2.60;;
37847;SDS011;23688;33.130;-117.188;2024-03-29T06:30:03;10.27;;;2.53;;
37847;SDS011;23688;33.130;-117.188;2024-03-29T06:32:31;10.23;;;2.42;;
37847;SDS011;23688;33.130;-117.188;2024-03-29T06:34:58;7.65;;;2.25;;
37847;SDS011;23688;33.130;-117.188;2024-03-29T06:37:25;14.60;;;2.45;;
37847;SDS011;23688;33.130;-117.188;2024-03-29T06:39:53;11.07;;;2.80;;
37847;SDS011;23688;33.130;-117.188;2024-03-29T06:42:19;10.77;;;2.60;;
37847;SDS011;23688;33.130;-117.188;2024-03-29T06:44:46;10.90;;;3.13;;
37847;SDS011;23688;33.130;-117.188;2024-03-29T06:47:12;15.27;;;3.25;;
37847;SDS011;23688;33.130;-117.188;2024-03-29T06:49:38;6.18;;;2.75;;
37847;SDS011;23688;33.130;-117.188;2024-03-29T06:52:05;8.18;;;2.78;;
37847;SDS011;23688;33.130;-117.188;2024-03-29T06:54:31;6.82;;;2.63;;
37847;SDS011;23688;33.130;-117.188;2024-03-29T06:56:58;9.43;;;2.70;;
37847;SDS011;23688;33.130;-117.188;2024-03-29T06:59:25;10.60;;;2.90;;
37847;SDS011;23688;33.130;-117.188;2024-03-29T07:01:53;11.48;;;2.88;;
37847;SDS011;23688;33.130;-117.188;2024-03-29T07:04:20;6.40;;;2.63;;
37847;SDS011;23688;33.130;-117.188;2024-03-29T07:06:48;7.53;;;1.80;;
37847;SDS011;23688;33.130;-117.188;2024-03-29T07:09:19;8.13;;;2.58;;
37847;SDS011;23688;33.130;-117.188;2024-03-29T07:11:47;5.45;;;2.95;;
37847;SDS011;23688;33.130;-117.188;2024-03-29T07:14:15;10.07;;;2.97;;
37847;SDS011;23688;33.130;-117.188;2024-03-29T07:16:42;6.88;;;2.33;;
37847;SDS011;23688;33.130;-117.188;2024-03-29T07:19:09;10.40;;;2.50;;
37847;SDS011;23688;33.130;-117.188;2024-03-29T07:21:43;12.80;;;2.80;;
37847;SDS011;23688;33.130;-117.188;2024-03-29T07:24:10;10.88;;;2.58;;
37847;SDS011;23688;33.130;-117.188;2024-03-29T07:26:37;8.52;;;2.58;;
37847;SDS011;23688;33.130;-117.188;2024-03-29T07:29:04;17.13;;;3.25;;
37847;SDS011;23688;33.130;-117.188;2024-03-29T07:31:32;12.80;;;2.87;;
37847;SDS011;23688;33.130;-117.188;2024-03-29T07:33:59;10.05;;;2.85;;
37847;SDS011;23688;33.130;-117.188;2024-03-29T07:36:26;7.82;;;2.60;;
37847;SDS011;23688;33.130;-117.188;2024-03-29T07:39:03;10.52;;;2.70;;
37847;SDS011;23688;33.130;-117.188;2024-03-29T07:41:29;5.10;;;2.72;;
37847;SDS011;23688;33.130;-117.188;2024-03-29T07:43:57;10.95;;;3.08;;
37847;SDS011;23688;33.130;-117.188;2024-03-29T07:46:32;8.82;;;2.60;;
37847;SDS011;23688;33.130;-117.188;2024-03-29T07:49:00;9.23;;;2.55;;
37847;SDS011;23688;33.130;-117.188;2024-03-29T07:51:28;9.90;;;2.70;;
37847;SDS011;23688;33.130;-117.188;2024-03-29T07:53:55;5.57;;;2.42;;
37847;SDS011;23688;33.130;-117.188;2024-03-29T07:56:21;11.93;;;3.42;;
37847;SDS011;23688;33.130;-117.188;2024-03-29T07:58:54;7.88;;;2.45;;
37847;SDS011;23688;33.130;-117.188;2024-03-29T08:01:20;12.85;;;2.40;;
37847;SDS011;23688;33.130;-117.188;2024-03-29T08:03:47;4.50;;;2.38;;
37847;SDS011;23688;33.130;-117.188;2024-03-29T08:06:17;8.45;;;2.47;;
37847;SDS011;23688;33.130;-117.188;2024-03-29T08:08:44;8.27;;;2.50;;
37847;SDS011;23688;33.130;-117.188;2024-03-29T08:11:11;7.80;;;2.65;;
37847;SDS011;23688;33.130;-117.188;2024-03-29T08:13:38;4.97;;;2.50;;
37847;SDS011;23688;33.130;-117.188;2024-03-29T08:16:09;14.02;;;3.35;;
37847;SDS011;23688;33.130;-117.188;2024-03-29T08:18:36;8.00;;;2.67;;
37847;SDS011;23688;33.130;-117.188;2024-03-29T08:21:02;9.27;;;2.60;;
37847;SDS011;23688;33.130;-117.188;2024-03-29T08:23:31;10.30;;;2.72;;
37847;SDS011;23688;33.130;-117.188;2024-03-29T08:25:57;7.10;;;2.40;;
37847;SDS011;23688;33.130;-117.188;2024-03-29T08:28:23;7.72;;;2.28;;
37847;SDS011;23688;33.130;-117.188;2024-03-29T08:30:59;7.15;;;2.60;;
37847;SDS011;23688;33.130;-117.188;2024-03-29T08:33:26;8.95;;;2.67;;
37847;SDS011;23688;33.130;-117.188;2024-03-29T08:35:53;7.25;;;2.45;;
37847;SDS011;23688;33.130;-117.188;2024-03-29T08:38:19;7.65;;;2.33;;
37847;SDS011;23688;33.130;-117.188;2024-03-29T08:40:45;13.82;;;3.03;;
37847;SDS011;23688;33.130;-117.188;2024-03-29T08:43:13;6.43;;;2.50;;
37847;SDS011;23688;33.130;-117.188;2024-03-29T08:45:43;9.73;;;2.85;;
37847;SDS011;23688;33.130;-117.188;2024-03-29T08:48:10;10.15;;;3.10;;
37847;SDS011;23688;33.130;-117.188;2024-03-29T08:50:38;7.25;;;2.95;;
37847;SDS011;23688;33.130;-117.188;2024-03-29T08:53:05;6.40;;;2.30;;
37847;SDS011;23688;33.130;-117.188;2024-03-29T08:55:35;8.98;;;2.60;;
37847;SDS011;23688;33.130;-117.188;2024-03-29T08:58:06;9.13;;;3.17;;
37847;SDS011;23688;33.130;-117.188;2024-03-29T09:00:32;6.43;;;2.70;;
37847;SDS011;23688;33.130;-117.188;2024-03-29T09:02:58;6.78;;;2.90;;
37847;SDS011;23688;33.130;-117.188;2024-03-29T09:05:26;9.70;;;2.58;;
37847;SDS011;23688;33.130;-117.188;2024-03-29T09:07:54;9.48;;;2.67;;
37847;SDS011;23688;33.130;-117.188;2024-03-29T09:10:22;4.63;;;2.33;;
37847;SDS011;23688;33.130;-117.188;2024-03-29T09:12:52;7.68;;;2.83;;
37847;SDS011;23688;33.130;-117.188;2024-03-29T09:15:18;7.30;;;2.80;;
37847;SDS011;23688;33.130;-117.188;2024-03-29T09:17:46;7.72;;;2.78;;
37847;SDS011;23688;33.130;-117.188;2024-03-29T09:20:20;6.40;;;2.42;;
37847;SDS011;23688;33.130;-117.188;2024-03-29T09:22:49;5.10;;;2.03;;
37847;SDS011;23688;33.130;-117.188;2024-03-29T09:25:16;5.40;;;2.40;;
37847;SDS011;23688;33.130;-117.188;2024-03-29T09:27:45;5.90;;;2.25;;
37847;SDS011;23688;33.130;-117.188;2024-03-29T09:30:13;9.40;;;2.70;;
37847;SDS011;23688;33.130;-117.188;2024-03-29T09:32:40;7.13;;;2.53;;
37847;SDS011;23688;33.130;-117.188;2024-03-29T09:35:07;5.45;;;2.17;;
37847;SDS011;23688;33.130;-117.188;2024-03-29T09:37:33;9.05;;;2.50;;
37847;SDS011;23688;33.130;-117.188;2024-03-29T09:40:04;7.83;;;2.00;;
37847;SDS011;23688;33.130;-117.188;2024-03-29T09:42:33;7.85;;;3.22;;
37847;SDS011;23688;33.130;-117.188;2024-03-29T09:45:02;7.32;;;2.90;;
37847;SDS011;23688;33.130;-117.188;2024-03-29T09:47:31;10.07;;;3.47;;
37847;SDS011;23688;33.130;-117.188;2024-03-29T09:50:02;8.57;;;3.10;;
37847;SDS011;23688;33.130;-117.188;2024-03-29T09:52:33;6.28;;;2.75;;
37847;SDS011;23688;33.130;-117.188;2024-03-29T09:55:02;10.68;;;2.38;;
37847;SDS011;23688;33.130;-117.188;2024-03-29T09:57:29;5.38;;;2.38;;
37847;SDS011;23688;33.130;-117.188;2024-03-29T09:59:57;9.52;;;2.40;;
37847;SDS011;23688;33.130;-117.188;2024-03-29T10:02:30;11.00;;;2.70;;
37847;SDS011;23688;33.130;-117.188;2024-03-29T10:04:57;6.80;;;2.80;;
37847;SDS011;23688;33.130;-117.188;2024-03-29T10:07:31;11.23;;;3.00;;
37847;SDS011;23688;33.130;-117.188;2024-03-29T10:10:01;9.30;;;2.45;;
37847;SDS011;23688;33.130;-117.188;2024-03-29T10:12:28;12.57;;;3.10;;
37847;SDS011;23688;33.130;-117.188;2024-03-29T10:14:56;4.75;;;2.95;;
37847;SDS011;23688;33.130;-117.188;2024-03-29T10:17:31;7.68;;;3.03;;
37847;SDS011;23688;33.130;-117.188;2024-03-29T10:20:04;7.65;;;3.40;;
37847;SDS011;23688;33.130;-117.188;2024-03-29T10:22:51;9.85;;;3.40;;
37847;SDS011;23688;33.130;-117.188;2024-03-29T10:25:17;4.85;;;3.08;;
37847;SDS011;23688;33.130;-117.188;2024-03-29T10:27:45;7.15;;;2.70;;
37847;SDS011;23688;33.130;-117.188;2024-03-29T10:30:11;8.40;;;2.92;;
37847;SDS011;23688;33.130;-117.188;2024-03-29T10:32:42;18.48;;;4.18;;
37847;SDS011;23688;33.130;-117.188;2024-03-29T10:35:09;6.60;;;3.63;;
37847;SDS011;23688;33.130;-117.188;2024-03-29T10:37:41;9.20;;;3.92;;
37847;SDS011;23688;33.130;-117.188;2024-03-29T10:40:09;8.82;;;2.85;;
37847;SDS011;23688;33.130;-117.188;2024-03-29T10:42:36;10.43;;;3.83;;
37847;SDS011;23688;33.130;-117.188;2024-03-29T10:45:06;7.85;;;2.95;;
37847;SDS011;23688;33.130;-117.188;2024-03-29T10:47:33;10.02;;;3.50;;
37847;SDS011;23688;33.130;-117.188;2024-03-29T10:50:00;8.32;;;3.42;;
37847;SDS011;23688;33.130;-117.188;2024-03-29T10:52:28;7.97;;;3.65;;
37847;SDS011;23688;33.130;-117.188;2024-03-29T10:54:54;9.68;;;3.30;;
37847;SDS011;23688;33.130;-117.188;2024-03-29T10:57:24;8.68;;;3.72;;
37847;SDS011;23688;33.130;-117.188;2024-03-29T11:05:16;20.25;;;3.67;;
37847;SDS011;23688;33.130;-117.188;2024-03-29T11:07:43;7.20;;;3.17;;
37847;SDS011;23688;33.130;-117.188;2024-03-29T11:10:13;8.32;;;3.10;;
37847;SDS011;23688;33.130;-117.188;2024-03-29T11:13:02;12.93;;;3.80;;
37847;SDS011;23688;33.130;-117.188;2024-03-29T11:15:47;9.80;;;4.00;;
37847;SDS011;23688;33.130;-117.188;2024-03-29T11:18:15;11.23;;;3.47;;
37847;SDS011;23688;33.130;-117.188;2024-03-29T11:20:44;13.07;;;3.30;;
37847;SDS011;23688;33.130;-117.188;2024-03-29T11:23:17;8.27;;;3.45;;
37847;SDS011;23688;33.130;-117.188;2024-03-29T11:25:46;6.95;;;3.50;;
37847;SDS011;23688;33.130;-117.188;2024-03-29T11:28:23;9.23;;;3.38;;
37847;SDS011;23688;33.130;-117.188;2024-03-29T11:30:52;10.00;;;3.83;;
37847;SDS011;23688;33.130;-117.188;2024-03-29T11:33:26;7.63;;;3.65;;
37847;SDS011;23688;33.130;-117.188;2024-03-29T11:35:52;6.47;;;3.90;;
37847;SDS011;23688;33.130;-117.188;2024-03-29T11:38:18;7.03;;;3.50;;
37847;SDS011;23688;33.130;-117.188;2024-03-29T11:40:54;11.00;;;3.53;;
37847;SDS011;23688;33.130;-117.188;2024-03-29T11:43:41;10.63;;;3.63;;
37847;SDS011;23688;33.130;-117.188;2024-03-29T11:46:09;9.38;;;3.60;;
37847;SDS011;23688;33.130;-117.188;2024-03-29T11:48:37;16.17;;;3.55;;
37847;SDS011;23688;33.130;-117.188;2024-03-29T11:51:04;8.80;;;3.45;;
37847;SDS011;23688;33.130;-117.188;2024-03-29T11:53:33;13.40;;;3.33;;
37847;SDS011;23688;33.130;-117.188;2024-03-29T11:56:00;6.95;;;3.70;;
37847;SDS011;23688;33.130;-117.188;2024-03-29T11:58:31;7.90;;;3.50;;
37847;SDS011;23688;33.130;-117.188;2024-03-29T12:00:59;7.47;;;3.15;;
37847;SDS011;23688;33.130;-117.188;2024-03-29T12:03:26;11.50;;;3.50;;
37847;SDS011;23688;33.130;-117.188;2024-03-29T12:05:55;9.82;;;3.67;;
37847;SDS011;23688;33.130;-117.188;2024-03-29T12:08:31;7.88;;;3.00;;
37847;SDS011;23688;33.130;-117.188;2024-03-29T12:10:59;8.73;;;2.95;;
37847;SDS011;23688;33.130;-117.188;2024-03-29T12:13:26;12.00;;;3.13;;
37847;SDS011;23688;33.130;-117.188;2024-03-29T12:15:53;8.45;;;2.88;;
37847;SDS011;23688;33.130;-117.188;2024-03-29T12:18:20;12.50;;;3.35;;
37847;SDS011;23688;33.130;-117.188;2024-03-29T12:20:50;10.43;;;3.50;;
37847;SDS011;23688;33.130;-117.188;2024-03-29T12:23:18;10.68;;;3.42;;
37847;SDS011;23688;33.130;-117.188;2024-03-29T12:25:46;10.10;;;3.70;;
37847;SDS011;23688;33.130;-117.188;2024-03-29T12:28:14;10.05;;;3.95;;
37847;SDS011;23688;33.130;-117.188;2024-03-29T12:30:42;12.15;;;4.32;;
37847;SDS011;23688;33.130;-117.188;2024-03-29T12:33:13;10.85;;;4.15;;
37847;SDS011;23688;33.130;-117.188;2024-03-29T12:35:43;12.30;;;3.55;;
37847;SDS011;23688;33.130;-117.188;2024-03-29T12:38:13;7.10;;;3.28;;
37847;SDS011;23688;33.130;-117.188;2024-03-29T12:40:45;7.18;;;3.70;;
37847;SDS011;23688;33.130;-117.188;2024-03-29T12:43:19;10.40;;;4.05;;
37847;SDS011;23688;33.130;-117.188;2024-03-29T12:45:48;10.55;;;3.65;;
37847;SDS011;23688;33.130;-117.188;2024-03-29T12:48:15;8.90;;;3.63;;
37847;SDS011;23688;33.130;-117.188;2024-03-29T12:50:45;8.88;;;3.40;;
37847;SDS011;23688;33.130;-117.188;2024-03-29T12:53:14;10.65;;;4.03;;
37847;SDS011;23688;33.130;-117.188;2024-03-29T12:55:42;10.85;;;3.67;;
37847;SDS011;23688;33.130;-117.188;2024-03-29T12:58:12;14.80;;;4.72;;
37847;SDS011;23688;33.130;-117.188;2024-03-29T13:00:41;7.03;;;3.35;;
37847;SDS011;23688;33.130;-117.188;2024-03-29T13:03:08;6.72;;;3.33;;
37847;SDS011;23688;33.130;-117.188;2024-03-29T13:05:35;8.43;;;3.78;;
37847;SDS011;23688;33.130;-117.188;2024-03-29T13:08:07;8.63;;;3.80;;
37847;SDS011;23688;33.130;-117.188;2024-03-29T13:10:37;11.57;;;3.97;;
37847;SDS011;23688;33.130;-117.188;2024-03-29T13:13:04;7.97;;;4.10;;
37847;SDS011;23688;33.130;-117.188;2024-03-29T13:15:32;12.45;;;3.88;;
37847;SDS011;23688;33.130;-117.188;2024-03-29T13:18:02;11.13;;;3.72;;
37847;SDS011;23688;33.130;-117.188;2024-03-29T13:20:31;8.90;;;3.58;;
37847;SDS011;23688;33.130;-117.188;2024-03-29T13:23:01;7.40;;;3.67;;
37847;SDS011;23688;33.130;-117.188;2024-03-29T13:25:28;9.88;;;4.07;;
37847;SDS011;23688;33.130;-117.188;2024-03-29T13:27:54;11.93;;;3.70;;
37847;SDS011;23688;33.130;-117.188;2024-03-29T13:30:23;13.23;;;4.55;;
37847;SDS011;23688;33.130;-117.188;2024-03-29T13:32:50;14.15;;;4.60;;
37847;SDS011;23688;33.130;-117.188;2024-03-29T13:35:17;14.57;;;4.90;;
37847;SDS011;23688;33.130;-117.188;2024-03-29T13:37:47;13.43;;;4.10;;
37847;SDS011;23688;33.130;-117.188;2024-03-29T13:40:15;13.40;;;3.53;;
37847;SDS011;23688;33.130;-117.188;2024-03-29T13:42:42;7.95;;;3.17;;
37847;SDS011;23688;33.130;-117.188;2024-03-29T13:45:09;11.63;;;3.72;;
37847;SDS011;23688;33.130;-117.188;2024-03-29T13:47:37;12.60;;;3.60;;
37847;SDS011;23688;33.130;-117.188;2024-03-29T13:50:07;15.02;;;3.53;;
37847;SDS011;23688;33.130;-117.188;2024-03-29T13:52:35;17.73;;;3.70;;
37847;SDS011;23688;33.130;-117.188;2024-03-29T13:55:02;9.50;;;3.83;;
37847;SDS011;23688;33.130;-117.188;2024-03-29T13:57:30;16.43;;;4.13;;
37847;SDS011;23688;33.130;-117.188;2024-03-29T13:59:56;12.07;;;4.05;;
37847;SDS011;23688;33.130;-117.188;2024-03-29T14:02:26;12.75;;;3.83;;
37847;SDS011;23688;33.130;-117.188;2024-03-29T14:04:53;15.90;;;4.38;;
37847;SDS011;23688;33.130;-117.188;2024-03-29T14:07:20;12.32;;;4.18;;
37847;SDS011;23688;33.130;-117.188;2024-03-29T14:09:50;16.38;;;4.47;;
37847;SDS011;23688;33.130;-117.188;2024-03-29T14:12:16;14.90;;;5.63;;
37847;SDS011;23688;33.130;-117.188;2024-03-29T14:14:43;13.15;;;4.90;;
37847;SDS011;23688;33.130;-117.188;2024-03-29T14:17:15;17.42;;;6.03;;
37847;SDS011;23688;33.130;-117.188;2024-03-29T14:19:42;12.90;;;5.72;;